KANQ/ANQ METAR and TAF weather

Enter ICAO airport designator
Station Type Date Time Source
KANQ METAR 2019/10/20 18:55 UTC NOAA

KANQ 201855Z AUTO VRB03KT 10SM BKN039 20/10 A2988 RMK AO2


Station Type Date Time Source
KANQ Decoded METAR 2019/10/20 18:55 UTC NOAA

Station name not available
Oct 20, 2019 - 02:55 PM EDT / 2019.10.20 1855 UTC
Wind: Variable at 3 MPH (3 KT):0
Visibility: 10 mile(s):0
Sky conditions: mostly cloudy
Temperature: 68 F (20 C)
Dew Point: 50 F (10 C)
Relative Humidity: 52%
Pressure (altimeter): 29.88 in. Hg (1011 hPa)
ob: KANQ 201855Z AUTO VRB03KT 10SM BKN039 20/10 A2988 RMK AO2
cycle: 19

Station Type Date Time Source
KANQ TAF UTC NOAA

Error!

Example: see airport list